sensor_id;sensor_type;location;lat;lon;timestamp;temperature;humidity
70166;SHT30;57541;47.408;18.822;2023-08-06T00:00:04;19.18;99.99
70166;SHT30;57541;47.408;18.822;2023-08-06T00:00:36;19.15;99.99
70166;SHT30;57541;47.408;18.822;2023-08-06T00:01:08;19.19;99.99
70166;SHT30;57541;47.408;18.822;2023-08-06T00:01:40;19.20;99.99
70166;SHT30;57541;47.408;18.822;2023-08-06T00:02:12;19.23;99.99
70166;SHT30;57541;47.408;18.822;2023-08-06T00:02:43;19.20;99.99
70166;SHT30;57541;47.408;18.822;2023-08-06T00:03:15;19.23;99.99
70166;SHT30;57541;47.408;18.822;2023-08-06T00:03:47;19.20;99.99
70166;SHT30;57541;47.408;18.822;2023-08-06T00:04:19;19.27;99.99
70166;SHT30;57541;47.408;18.822;2023-08-06T00:04:51;19.29;99.99
70166;SHT30;57541;47.408;18.822;2023-08-06T00:05:22;19.27;99.99
70166;SHT30;57541;47.408;18.822;2023-08-06T00:05:54;19.23;99.99
70166;SHT30;57541;47.408;18.822;2023-08-06T00:06:26;19.26;99.99
70166;SHT30;57541;47.408;18.822;2023-08-06T00:06:57;19.26;99.99
70166;SHT30;57541;47.408;18.822;2023-08-06T00:07:29;19.23;99.99
70166;SHT30;57541;47.408;18.822;2023-08-06T00:08:01;19.26;99.99
70166;SHT30;57541;47.408;18.822;2023-08-06T00:08:32;19.23;99.99
70166;SHT30;57541;47.408;18.822;2023-08-06T00:09:04;19.22;99.99
70166;SHT30;57541;47.408;18.822;2023-08-06T00:09:36;19.20;99.99
70166;SHT30;57541;47.408;18.822;2023-08-06T00:10:07;19.15;99.99
70166;SHT30;57541;47.408;18.822;2023-08-06T00:10:40;19.08;99.99
70166;SHT30;57541;47.408;18.822;2023-08-06T00:11:12;19.08;99.99
70166;SHT30;57541;47.408;18.822;2023-08-06T00:11:44;19.13;99.99
70166;SHT30;57541;47.408;18.822;2023-08-06T00:12:18;19.11;99.99
70166;SHT30;57541;47.408;18.822;2023-08-06T00:12:49;19.08;99.99
70166;SHT30;57541;47.408;18.822;2023-08-06T00:13:21;18.99;99.99
70166;SHT30;57541;47.408;18.822;2023-08-06T00:13:53;19.02;99.99
70166;SHT30;57541;47.408;18.822;2023-08-06T00:14:25;19.04;99.99
70166;SHT30;57541;47.408;18.822;2023-08-06T00:14:56;19.02;99.99
70166;SHT30;57541;47.408;18.822;2023-08-06T00:15:28;18.96;99.99
70166;SHT30;57541;47.408;18.822;2023-08-06T00:16:12;18.98;99.99
70166;SHT30;57541;47.408;18.822;2023-08-06T00:16:45;18.89;99.99
70166;SHT30;57541;47.408;18.822;2023-08-06T00:17:17;18.95;99.99
70166;SHT30;57541;47.408;18.822;2023-08-06T00:17:48;18.79;99.99
70166;SHT30;57541;47.408;18.822;2023-08-06T00:18:20;18.84;99.99
70166;SHT30;57541;47.408;18.822;2023-08-06T00:18:52;18.75;99.99
70166;SHT30;57541;47.408;18.822;2023-08-06T00:19:23;18.79;99.99
70166;SHT30;57541;47.408;18.822;2023-08-06T00:19:55;18.84;99.99
70166;SHT30;57541;47.408;18.822;2023-08-06T00:20:27;18.87;99.99
70166;SHT30;57541;47.408;18.822;2023-08-06T00:20:58;18.94;99.99
70166;SHT30;57541;47.408;18.822;2023-08-06T00:21:30;18.94;99.99
70166;SHT30;57541;47.408;18.822;2023-08-06T00:22:02;18.95;99.99
70166;SHT30;57541;47.408;18.822;2023-08-06T00:22:35;19.01;99.99
70166;SHT30;57541;47.408;18.822;2023-08-06T00:23:07;19.05;99.99
70166;SHT30;57541;47.408;18.822;2023-08-06T00:23:40;19.09;99.99
70166;SHT30;57541;47.408;18.822;2023-08-06T00:24:12;19.05;99.99
70166;SHT30;57541;47.408;18.822;2023-08-06T00:24:44;19.12;99.99
70166;SHT30;57541;47.408;18.822;2023-08-06T00:25:15;19.12;99.99
70166;SHT30;57541;47.408;18.822;2023-08-06T00:25:47;19.05;99.99
70166;SHT30;57541;47.408;18.822;2023-08-06T00:26:19;19.05;99.99
70166;SHT30;57541;47.408;18.822;2023-08-06T00:26:51;18.99;99.99
70166;SHT30;57541;47.408;18.822;2023-08-06T00:27:23;19.04;99.99
70166;SHT30;57541;47.408;18.822;2023-08-06T00:27:54;19.04;99.99
70166;SHT30;57541;47.408;18.822;2023-08-06T00:28:27;18.99;99.99
70166;SHT30;57541;47.408;18.822;2023-08-06T00:28:59;18.99;99.99
70166;SHT30;57541;47.408;18.822;2023-08-06T00:29:31;19.01;99.99
70166;SHT30;57541;47.408;18.822;2023-08-06T00:30:03;18.89;99.99
70166;SHT30;57541;47.408;18.822;2023-08-06T00:30:34;18.95;99.99
70166;SHT30;57541;47.408;18.822;2023-08-06T00:31:06;18.94;99.99
70166;SHT30;57541;47.408;18.822;2023-08-06T00:31:38;18.95;99.99
70166;SHT30;57541;47.408;18.822;2023-08-06T00:32:09;18.94;99.99
70166;SHT30;57541;47.408;18.822;2023-08-06T00:32:41;18.94;99.99
70166;SHT30;57541;47.408;18.822;2023-08-06T00:33:13;18.95;99.99
70166;SHT30;57541;47.408;18.822;2023-08-06T00:33:44;18.98;99.99
70166;SHT30;57541;47.408;18.822;2023-08-06T00:34:16;18.98;99.99
70166;SHT30;57541;47.408;18.822;2023-08-06T00:34:48;18.99;99.99
70166;SHT30;57541;47.408;18.822;2023-08-06T00:35:22;19.02;99.99
70166;SHT30;57541;47.408;18.822;2023-08-06T00:35:54;19.06;99.99
70166;SHT30;57541;47.408;18.822;2023-08-06T00:36:26;19.08;99.99
70166;SHT30;57541;47.408;18.822;2023-08-06T00:36:57;19.08;99.99
70166;SHT30;57541;47.408;18.822;2023-08-06T00:37:29;19.05;99.99
70166;SHT30;57541;47.408;18.822;2023-08-06T00:38:01;19.06;99.99
70166;SHT30;57541;47.408;18.822;2023-08-06T00:38:32;19.08;99.99
70166;SHT30;57541;47.408;18.822;2023-08-06T00:39:04;19.11;99.99
70166;SHT30;57541;47.408;18.822;2023-08-06T00:39:35;19.11;99.99
70166;SHT30;57541;47.408;18.822;2023-08-06T00:40:07;19.05;99.99
70166;SHT30;57541;47.408;18.822;2023-08-06T00:40:40;19.09;99.99
70166;SHT30;57541;47.408;18.822;2023-08-06T00:41:11;19.12;99.99
70166;SHT30;57541;47.408;18.822;2023-08-06T00:41:43;19.09;99.99
70166;SHT30;57541;47.408;18.822;2023-08-06T00:42:14;19.08;99.99
70166;SHT30;57541;47.408;18.822;2023-08-06T00:42:47;19.06;99.99
70166;SHT30;57541;47.408;18.822;2023-08-06T00:43:19;19.06;99.99
70166;SHT30;57541;47.408;18.822;2023-08-06T00:43:51;19.09;99.99
70166;SHT30;57541;47.408;18.822;2023-08-06T00:44:23;19.02;99.99
70166;SHT30;57541;47.408;18.822;2023-08-06T00:44:55;19.05;99.99
70166;SHT30;57541;47.408;18.822;2023-08-06T00:45:28;19.08;99.99
70166;SHT30;57541;47.408;18.822;2023-08-06T00:46:01;19.05;99.99
70166;SHT30;57541;47.408;18.822;2023-08-06T00:46:33;19.01;99.99
70166;SHT30;57541;47.408;18.822;2023-08-06T00:47:07;18.99;99.99
70166;SHT30;57541;47.408;18.822;2023-08-06T00:47:39;19.01;99.99
70166;SHT30;57541;47.408;18.822;2023-08-06T00:48:11;19.04;99.99
70166;SHT30;57541;47.408;18.822;2023-08-06T00:48:42;19.05;99.99
70166;SHT30;57541;47.408;18.822;2023-08-06T00:49:14;19.04;99.99
70166;SHT30;57541;47.408;18.822;2023-08-06T00:49:46;19.05;99.99
70166;SHT30;57541;47.408;18.822;2023-08-06T00:50:17;19.04;99.99
70166;SHT30;57541;47.408;18.822;2023-08-06T00:50:49;19.04;99.99
70166;SHT30;57541;47.408;18.822;2023-08-06T00:51:22;19.04;99.99
70166;SHT30;57541;47.408;18.822;2023-08-06T00:51:53;18.99;99.99
70166;SHT30;57541;47.408;18.822;2023-08-06T00:52:26;19.02;99.99
70166;SHT30;57541;47.408;18.822;2023-08-06T00:52:58;19.02;99.99
70166;SHT30;57541;47.408;18.822;2023-08-06T00:53:30;19.04;99.99
70166;SHT30;57541;47.408;18.822;2023-08-06T00:54:02;18.95;99.99
70166;SHT30;57541;47.408;18.822;2023-08-06T00:54:34;18.95;99.99
70166;SHT30;57541;47.408;18.822;2023-08-06T00:55:06;18.99;99.99
70166;SHT30;57541;47.408;18.822;2023-08-06T00:55:38;18.96;99.99
70166;SHT30;57541;47.408;18.822;2023-08-06T00:56:10;18.99;99.99
70166;SHT30;57541;47.408;18.822;2023-08-06T00:56:42;19.05;99.99
70166;SHT30;57541;47.408;18.822;2023-08-06T00:57:14;19.02;99.99
70166;SHT30;57541;47.408;18.822;2023-08-06T00:57:46;18.98;99.99
70166;SHT30;57541;47.408;18.822;2023-08-06T00:58:19;18.98;99.99
70166;SHT30;57541;47.408;18.822;2023-08-06T00:58:51;19.01;99.99
70166;SHT30;57541;47.408;18.822;2023-08-06T00:59:22;19.04;99.99
70166;SHT30;57541;47.408;18.822;2023-08-06T00:59:54;19.04;99.99
70166;SHT30;57541;47.408;18.822;2023-08-06T01:00:26;18.99;99.99
70166;SHT30;57541;47.408;18.822;2023-08-06T01:00:58;18.99;99.99
70166;SHT30;57541;47.408;18.822;2023-08-06T01:01:30;19.01;99.99
70166;SHT30;57541;47.408;18.822;2023-08-06T01:02:02;18.98;99.99
70166;SHT30;57541;47.408;18.822;2023-08-06T01:02:33;18.96;99.99
70166;SHT30;57541;47.408;18.822;2023-08-06T01:03:05;18.98;99.99
70166;SHT30;57541;47.408;18.822;2023-08-06T01:03:37;19.01;99.99
70166;SHT30;57541;47.408;18.822;2023-08-06T01:04:09;19.02;99.99
70166;SHT30;57541;47.408;18.822;2023-08-06T01:04:41;19.01;99.99
70166;SHT30;57541;47.408;18.822;2023-08-06T01:05:13;19.02;99.99
70166;SHT30;57541;47.408;18.822;2023-08-06T01:05:45;19.04;99.99
70166;SHT30;57541;47.408;18.822;2023-08-06T01:06:19;19.01;99.99
70166;SHT30;57541;47.408;18.822;2023-08-06T01:07:14;18.98;99.99
70166;SHT30;57541;47.408;18.822;2023-08-06T01:09:00;18.96;99.99
70166;SHT30;57541;47.408;18.822;2023-08-06T01:10:50;18.98;99.99
70166;SHT30;57541;47.408;18.822;2023-08-06T01:11:33;18.96;99.99
70166;SHT30;57541;47.408;18.822;2023-08-06T01:12:29;18.95;99.99
70166;SHT30;57541;47.408;18.822;2023-08-06T01:13:48;18.94;99.99
70166;SHT30;57541;47.408;18.822;2023-08-06T01:14:54;18.87;99.99
70166;SHT30;57541;47.408;18.822;2023-08-06T01:15:33;18.89;99.99
70166;SHT30;57541;47.408;18.822;2023-08-06T01:16:06;18.91;99.99
70166;SHT30;57541;47.408;18.822;2023-08-06T01:16:39;18.84;99.99
70166;SHT30;57541;47.408;18.822;2023-08-06T01:17:12;18.84;99.99
70166;SHT30;57541;47.408;18.822;2023-08-06T01:17:45;18.83;99.99
70166;SHT30;57541;47.408;18.822;2023-08-06T01:18:16;18.84;99.99
70166;SHT30;57541;47.408;18.822;2023-08-06T01:18:48;18.84;99.99
70166;SHT30;57541;47.408;18.822;2023-08-06T01:19:23;18.75;99.99
70166;SHT30;57541;47.408;18.822;2023-08-06T01:19:54;18.85;99.99
70166;SHT30;57541;47.408;18.822;2023-08-06T01:20:32;18.87;99.99
70166;SHT30;57541;47.408;18.822;2023-08-06T01:21:03;18.88;99.99
70166;SHT30;57541;47.408;18.822;2023-08-06T01:21:35;18.88;99.99
70166;SHT30;57541;47.408;18.822;2023-08-06T01:22:07;18.88;99.99
70166;SHT30;57541;47.408;18.822;2023-08-06T01:22:38;18.84;99.99
70166;SHT30;57541;47.408;18.822;2023-08-06T01:23:10;18.83;99.99
70166;SHT30;57541;47.408;18.822;2023-08-06T01:23:42;18.83;99.99
70166;SHT30;57541;47.408;18.822;2023-08-06T01:24:14;18.83;99.99
70166;SHT30;57541;47.408;18.822;2023-08-06T01:24:48;18.84;99.99
70166;SHT30;57541;47.408;18.822;2023-08-06T01:25:20;18.84;99.99
70166;SHT30;57541;47.408;18.822;2023-08-06T01:26:41;18.81;99.99
70166;SHT30;57541;47.408;18.822;2023-08-06T01:27:44;18.71;99.99
70166;SHT30;57541;47.408;18.822;2023-08-06T01:28:31;18.74;99.99
70166;SHT30;57541;47.408;18.822;2023-08-06T01:29:10;18.76;99.99
70166;SHT30;57541;47.408;18.822;2023-08-06T01:29:49;18.68;99.99
70166;SHT30;57541;47.408;18.822;2023-08-06T01:30:29;18.71;99.99
70166;SHT30;57541;47.408;18.822;2023-08-06T01:31:03;18.72;99.99
70166;SHT30;57541;47.408;18.822;2023-08-06T01:31:37;18.75;99.99
70166;SHT30;57541;47.408;18.822;2023-08-06T01:32:11;18.76;99.99
70166;SHT30;57541;47.408;18.822;2023-08-06T01:32:45;18.75;99.99
70166;SHT30;57541;47.408;18.822;2023-08-06T01:33:21;18.71;99.99
70166;SHT30;57541;47.408;18.822;2023-08-06T01:33:53;18.76;99.99
70166;SHT30;57541;47.408;18.822;2023-08-06T01:34:29;18.76;99.99
70166;SHT30;57541;47.408;18.822;2023-08-06T01:35:04;18.78;99.99
70166;SHT30;57541;47.408;18.822;2023-08-06T01:35:37;18.78;99.99
70166;SHT30;57541;47.408;18.822;2023-08-06T01:36:09;18.76;99.99
70166;SHT30;57541;47.408;18.822;2023-08-06T01:36:41;18.78;99.99
70166;SHT30;57541;47.408;18.822;2023-08-06T01:37:13;18.76;99.99
70166;SHT30;57541;47.408;18.822;2023-08-06T01:37:47;18.72;99.99
70166;SHT30;57541;47.408;18.822;2023-08-06T01:38:19;18.69;99.99
70166;SHT30;57541;47.408;18.822;2023-08-06T01:38:52;18.72;99.99
70166;SHT30;57541;47.408;18.822;2023-08-06T01:39:24;18.55;99.99
70166;SHT30;57541;47.408;18.822;2023-08-06T01:39:56;18.54;99.99
70166;SHT30;57541;47.408;18.822;2023-08-06T01:40:28;18.57;99.99
70166;SHT30;57541;47.408;18.822;2023-08-06T01:41:01;18.61;99.99
70166;SHT30;57541;47.408;18.822;2023-08-06T01:41:32;18.63;99.99
70166;SHT30;57541;47.408;18.822;2023-08-06T01:42:04;18.67;99.99
70166;SHT30;57541;47.408;18.822;2023-08-06T01:42:36;18.64;99.99
70166;SHT30;57541;47.408;18.822;2023-08-06T01:43:07;18.64;99.99
70166;SHT30;57541;47.408;18.822;2023-08-06T01:43:39;18.61;99.99
70166;SHT30;57541;47.408;18.822;2023-08-06T01:44:11;18.65;99.99
70166;SHT30;57541;47.408;18.822;2023-08-06T01:44:42;18.64;99.99
70166;SHT30;57541;47.408;18.822;2023-08-06T01:45:14;18.65;99.99
70166;SHT30;57541;47.408;18.822;2023-08-06T01:45:46;18.64;99.99
70166;SHT30;57541;47.408;18.822;2023-08-06T01:46:17;18.65;99.99
70166;SHT30;57541;47.408;18.822;2023-08-06T01:46:49;18.67;99.99
70166;SHT30;57541;47.408;18.822;2023-08-06T01:47:21;18.64;99.99
70166;SHT30;57541;47.408;18.822;2023-08-06T01:47:53;18.69;99.99
70166;SHT30;57541;47.408;18.822;2023-08-06T01:48:24;18.69;99.99
70166;SHT30;57541;47.408;18.822;2023-08-06T01:48:56;18.68;99.99
70166;SHT30;57541;47.408;18.822;2023-08-06T01:49:28;18.63;99.99
70166;SHT30;57541;47.408;18.822;2023-08-06T01:50:00;18.64;99.99
70166;SHT30;57541;47.408;18.822;2023-08-06T01:50:32;18.61;99.99
70166;SHT30;57541;47.408;18.822;2023-08-06T01:51:04;18.58;99.99
70166;SHT30;57541;47.408;18.822;2023-08-06T01:51:37;18.60;99.99
70166;SHT30;57541;47.408;18.822;2023-08-06T01:52:08;18.63;99.99
70166;SHT30;57541;47.408;18.822;2023-08-06T01:52:40;18.58;99.99
70166;SHT30;57541;47.408;18.822;2023-08-06T01:53:12;18.60;99.99
70166;SHT30;57541;47.408;18.822;2023-08-06T01:53:43;18.63;99.99
70166;SHT30;57541;47.408;18.822;2023-08-06T01:54:15;18.58;99.99
70166;SHT30;57541;47.408;18.822;2023-08-06T01:54:47;18.61;99.99
70166;SHT30;57541;47.408;18.822;2023-08-06T01:55:18;18.60;99.99
70166;SHT30;57541;47.408;18.822;2023-08-06T01:55:50;18.60;99.99
70166;SHT30;57541;47.408;18.822;2023-08-06T01:56:22;18.60;99.99
70166;SHT30;57541;47.408;18.822;2023-08-06T01:56:54;18.63;99.99
70166;SHT30;57541;47.408;18.822;2023-08-06T01:57:25;18.57;99.99
70166;SHT30;57541;47.408;18.822;2023-08-06T01:57:57;18.60;99.99
70166;SHT30;57541;47.408;18.822;2023-08-06T01:58:28;18.58;99.99
70166;SHT30;57541;47.408;18.822;2023-08-06T01:59:00;18.57;99.99
70166;SHT30;57541;47.408;18.822;2023-08-06T01:59:35;18.61;99.99
70166;SHT30;57541;47.408;18.822;2023-08-06T02:00:07;18.57;99.99
70166;SHT30;57541;47.408;18.822;2023-08-06T02:00:40;18.58;99.99
70166;SHT30;57541;47.408;18.822;2023-08-06T02:01:11;18.61;99.99
70166;SHT30;57541;47.408;18.822;2023-08-06T02:01:43;18.67;99.99
70166;SHT30;57541;47.408;18.822;2023-08-06T02:02:15;18.68;99.99
70166;SHT30;57541;47.408;18.822;2023-08-06T02:02:47;18.69;99.99
70166;SHT30;57541;47.408;18.822;2023-08-06T02:03:18;18.74;99.99
70166;SHT30;57541;47.408;18.822;2023-08-06T02:03:50;18.74;99.99
70166;SHT30;57541;47.408;18.822;2023-08-06T02:04:22;18.78;99.99
70166;SHT30;57541;47.408;18.822;2023-08-06T02:04:53;18.78;99.99
70166;SHT30;57541;47.408;18.822;2023-08-06T02:05:25;18.75;99.99
70166;SHT30;57541;47.408;18.822;2023-08-06T02:05:57;18.79;99.99
70166;SHT30;57541;47.408;18.822;2023-08-06T02:06:28;18.79;99.99
70166;SHT30;57541;47.408;18.822;2023-08-06T02:07:00;18.76;99.99
70166;SHT30;57541;47.408;18.822;2023-08-06T02:07:32;18.76;99.99
70166;SHT30;57541;47.408;18.822;2023-08-06T02:08:03;18.79;99.99
70166;SHT30;57541;47.408;18.822;2023-08-06T02:08:35;18.79;99.99
70166;SHT30;57541;47.408;18.822;2023-08-06T02:09:07;18.79;99.99
70166;SHT30;57541;47.408;18.822;2023-08-06T02:09:38;18.79;99.99
70166;SHT30;57541;47.408;18.822;2023-08-06T02:10:11;18.75;99.99
70166;SHT30;57541;47.408;18.822;2023-08-06T02:10:43;18.69;99.99
70166;SHT30;57541;47.408;18.822;2023-08-06T02:11:15;18.71;99.99
70166;SHT30;57541;47.408;18.822;2023-08-06T02:11:47;18.72;99.99
70166;SHT30;57541;47.408;18.822;2023-08-06T02:12:19;18.74;99.99
70166;SHT30;57541;47.408;18.822;2023-08-06T02:12:50;18.76;99.99
70166;SHT30;57541;47.408;18.822;2023-08-06T02:13:22;18.71;99.99
70166;SHT30;57541;47.408;18.822;2023-08-06T02:13:54;18.69;99.99
70166;SHT30;57541;47.408;18.822;2023-08-06T02:14:26;18.78;99.99
70166;SHT30;57541;47.408;18.822;2023-08-06T02:14:57;18.79;99.99
70166;SHT30;57541;47.408;18.822;2023-08-06T02:15:29;18.76;99.99
70166;SHT30;57541;47.408;18.822;2023-08-06T02:16:01;18.83;99.99
70166;SHT30;57541;47.408;18.822;2023-08-06T02:16:32;18.74;99.99
70166;SHT30;57541;47.408;18.822;2023-08-06T02:17:04;18.69;99.99
70166;SHT30;57541;47.408;18.822;2023-08-06T02:17:36;18.71;99.99
70166;SHT30;57541;47.408;18.822;2023-08-06T02:18:07;18.63;99.99
70166;SHT30;57541;47.408;18.822;2023-08-06T02:18:39;18.69;99.99
70166;SHT30;57541;47.408;18.822;2023-08-06T02:19:11;18.71;99.99
70166;SHT30;57541;47.408;18.822;2023-08-06T02:19:42;18.68;99.99
70166;SHT30;57541;47.408;18.822;2023-08-06T02:20:14;18.72;99.99
70166;SHT30;57541;47.408;18.822;2023-08-06T02:20:59;18.65;99.99
70166;SHT30;57541;47.408;18.822;2023-08-06T02:21:31;18.67;99.99
70166;SHT30;57541;47.408;18.822;2023-08-06T02:22:02;18.68;99.99
70166;SHT30;57541;47.408;18.822;2023-08-06T02:22:34;18.63;99.99
70166;SHT30;57541;47.408;18.822;2023-08-06T02:23:06;18.65;99.99
70166;SHT30;57541;47.408;18.822;2023-08-06T02:23:38;18.63;99.99
70166;SHT30;57541;47.408;18.822;2023-08-06T02:24:09;18.61;99.99
70166;SHT30;57541;47.408;18.822;2023-08-06T02:24:41;18.65;99.99
70166;SHT30;57541;47.408;18.822;2023-08-06T02:25:13;18.67;99.99
70166;SHT30;57541;47.408;18.822;2023-08-06T02:25:45;18.68;99.99
70166;SHT30;57541;47.408;18.822;2023-08-06T02:26:16;18.68;99.99
70166;SHT30;57541;47.408;18.822;2023-08-06T02:26:48;18.69;99.99
70166;SHT30;57541;47.408;18.822;2023-08-06T02:27:22;18.71;99.99
70166;SHT30;57541;47.408;18.822;2023-08-06T02:27:54;18.71;99.99
70166;SHT30;57541;47.408;18.822;2023-08-06T02:28:25;18.65;99.99
70166;SHT30;57541;47.408;18.822;2023-08-06T02:28:57;18.64;99.99
70166;SHT30;57541;47.408;18.822;2023-08-06T02:29:29;18.64;99.99
70166;SHT30;57541;47.408;18.822;2023-08-06T02:30:01;18.68;99.99
70166;SHT30;57541;47.408;18.822;2023-08-06T02:30:34;18.61;99.99
70166;SHT30;57541;47.408;18.822;2023-08-06T02:31:06;18.67;99.99
70166;SHT30;57541;47.408;18.822;2023-08-06T02:31:38;18.67;99.99
70166;SHT30;57541;47.408;18.822;2023-08-06T02:32:10;18.67;99.99
70166;SHT30;57541;47.408;18.822;2023-08-06T02:32:41;18.61;99.99
70166;SHT30;57541;47.408;18.822;2023-08-06T02:33:13;18.68;99.99
70166;SHT30;57541;47.408;18.822;2023-08-06T02:33:45;18.63;99.99
70166;SHT30;57541;47.408;18.822;2023-08-06T02:34:16;18.60;99.99
70166;SHT30;57541;47.408;18.822;2023-08-06T02:34:48;18.50;99.99
70166;SHT30;57541;47.408;18.822;2023-08-06T02:35:20;18.51;99.99
70166;SHT30;57541;47.408;18.822;2023-08-06T02:35:58;18.50;99.99
70166;SHT30;57541;47.408;18.822;2023-08-06T02:36:30;18.48;99.99
70166;SHT30;57541;47.408;18.822;2023-08-06T02:37:03;18.48;99.99
70166;SHT30;57541;47.408;18.822;2023-08-06T02:37:35;18.51;99.99
70166;SHT30;57541;47.408;18.822;2023-08-06T02:38:07;18.51;99.99
70166;SHT30;57541;47.408;18.822;2023-08-06T02:38:38;18.54;99.99
70166;SHT30;57541;47.408;18.822;2023-08-06T02:39:10;18.46;99.99
70166;SHT30;57541;47.408;18.822;2023-08-06T02:39:42;18.50;99.99
70166;SHT30;57541;47.408;18.822;2023-08-06T02:40:14;18.43;99.99
70166;SHT30;57541;47.408;18.822;2023-08-06T02:40:46;18.46;99.99
70166;SHT30;57541;47.408;18.822;2023-08-06T02:41:18;18.47;99.99
70166;SHT30;57541;47.408;18.822;2023-08-06T02:41:49;18.44;99.99
70166;SHT30;57541;47.408;18.822;2023-08-06T02:42:21;18.46;99.99
70166;SHT30;57541;47.408;18.822;2023-08-06T02:42:54;18.41;99.99
70166;SHT30;57541;47.408;18.822;2023-08-06T02:43:26;18.46;99.99
70166;SHT30;57541;47.408;18.822;2023-08-06T02:43:58;18.34;99.99
70166;SHT30;57541;47.408;18.822;2023-08-06T02:44:29;18.38;99.99
70166;SHT30;57541;47.408;18.822;2023-08-06T02:45:01;18.36;99.99
70166;SHT30;57541;47.408;18.822;2023-08-06T02:45:33;18.41;99.99
70166;SHT30;57541;47.408;18.822;2023-08-06T02:46:05;18.43;99.99
70166;SHT30;57541;47.408;18.822;2023-08-06T02:46:37;18.46;99.99
70166;SHT30;57541;47.408;18.822;2023-08-06T02:47:08;18.50;99.99
70166;SHT30;57541;47.408;18.822;2023-08-06T02:47:40;18.48;99.99
70166;SHT30;57541;47.408;18.822;2023-08-06T02:48:12;18.50;99.99
70166;SHT30;57541;47.408;18.822;2023-08-06T02:48:43;18.43;99.99
70166;SHT30;57541;47.408;18.822;2023-08-06T02:49:15;18.46;99.99
70166;SHT30;57541;47.408;18.822;2023-08-06T02:49:47;18.38;99.99
70166;SHT30;57541;47.408;18.822;2023-08-06T02:50:18;18.41;99.99
70166;SHT30;57541;47.408;18.822;2023-08-06T02:50:50;18.43;99.99
70166;SHT30;57541;47.408;18.822;2023-08-06T02:51:22;18.47;99.99
70166;SHT30;57541;47.408;18.822;2023-08-06T02:51:53;18.46;99.99
70166;SHT30;57541;47.408;18.822;2023-08-06T02:52:25;18.53;99.99
70166;SHT30;57541;47.408;18.822;2023-08-06T02:52:57;18.46;99.99
70166;SHT30;57541;47.408;18.822;2023-08-06T02:53:29;18.50;99.99
70166;SHT30;57541;47.408;18.822;2023-08-06T02:54:01;18.54;99.99
70166;SHT30;57541;47.408;18.822;2023-08-06T02:54:32;18.48;99.99
70166;SHT30;57541;47.408;18.822;2023-08-06T02:55:04;18.51;99.99
70166;SHT30;57541;47.408;18.822;2023-08-06T02:55:36;18.47;99.99
70166;SHT30;57541;47.408;18.822;2023-08-06T02:56:08;18.54;99.99
70166;SHT30;57541;47.408;18.822;2023-08-06T02:56:43;18.57;99.99
70166;SHT30;57541;47.408;18.822;2023-08-06T02:57:15;18.53;99.99
70166;SHT30;57541;47.408;18.822;2023-08-06T02:57:47;18.53;99.99
70166;SHT30;57541;47.408;18.822;2023-08-06T02:58:18;18.51;99.99
70166;SHT30;57541;47.408;18.822;2023-08-06T02:58:53;18.48;99.99
70166;SHT30;57541;47.408;18.822;2023-08-06T02:59:25;18.51;99.99
70166;SHT30;57541;47.408;18.822;2023-08-06T02:59:57;18.51;99.99
70166;SHT30;57541;47.408;18.822;2023-08-06T03:00:28;18.50;99.99
70166;SHT30;57541;47.408;18.822;2023-08-06T03:01:02;18.43;99.99
70166;SHT30;57541;47.408;18.822;2023-08-06T03:01:34;18.47;99.99
70166;SHT30;57541;47.408;18.822;2023-08-06T03:02:07;18.53;99.99
70166;SHT30;57541;47.408;18.822;2023-08-06T03:02:39;18.55;99.99
70166;SHT30;57541;47.408;18.822;2023-08-06T03:03:11;18.58;99.99
70166;SHT30;57541;47.408;18.822;2023-08-06T03:03:42;18.57;99.99
70166;SHT30;57541;47.408;18.822;2023-08-06T03:04:14;18.54;99.99
70166;SHT30;57541;47.408;18.822;2023-08-06T03:04:46;18.53;99.99
70166;SHT30;57541;47.408;18.822;2023-08-06T03:05:17;18.48;99.99
70166;SHT30;57541;47.408;18.822;2023-08-06T03:05:53;18.50;99.99
70166;SHT30;57541;47.408;18.822;2023-08-06T03:06:25;18.53;99.99
70166;SHT30;57541;47.408;18.822;2023-08-06T03:06:56;18.53;99.99
70166;SHT30;57541;47.408;18.822;2023-08-06T03:07:28;18.51;99.99
70166;SHT30;57541;47.408;18.822;2023-08-06T03:08:00;18.50;99.99
70166;SHT30;57541;47.408;18.822;2023-08-06T03:08:32;18.46;99.99
70166;SHT30;57541;47.408;18.822;2023-08-06T03:09:03;18.46;99.99
70166;SHT30;57541;47.408;18.822;2023-08-06T03:09:35;18.47;99.99
70166;SHT30;57541;47.408;18.822;2023-08-06T03:10:07;18.53;99.99
70166;SHT30;57541;47.408;18.822;2023-08-06T03:10:39;18.48;99.99
70166;SHT30;57541;47.408;18.822;2023-08-06T03:11:13;18.53;99.99
70166;SHT30;57541;47.408;18.822;2023-08-06T03:11:45;18.53;99.99
70166;SHT30;57541;47.408;18.822;2023-08-06T03:12:16;18.57;99.99
70166;SHT30;57541;47.408;18.822;2023-08-06T03:12:48;18.58;99.99
70166;SHT30;57541;47.408;18.822;2023-08-06T03:13:20;18.58;99.99
70166;SHT30;57541;47.408;18.822;2023-08-06T03:13:52;18.54;99.99
70166;SHT30;57541;47.408;18.822;2023-08-06T03:14:23;18.48;99.99
70166;SHT30;57541;47.408;18.822;2023-08-06T03:14:55;18.48;99.99
70166;SHT30;57541;47.408;18.822;2023-08-06T03:15:27;18.48;99.99
70166;SHT30;57541;47.408;18.822;2023-08-06T03:15:59;18.53;99.99
70166;SHT30;57541;47.408;18.822;2023-08-06T03:16:31;18.54;99.99
70166;SHT30;57541;47.408;18.822;2023-08-06T03:17:03;18.55;99.99
70166;SHT30;57541;47.408;18.822;2023-08-06T03:17:34;18.50;99.99
70166;SHT30;57541;47.408;18.822;2023-08-06T03:18:07;18.53;99.99
70166;SHT30;57541;47.408;18.822;2023-08-06T03:18:39;18.51;99.99
70166;SHT30;57541;47.408;18.822;2023-08-06T03:19:10;18.46;99.99
70166;SHT30;57541;47.408;18.822;2023-08-06T03:19:42;18.48;99.99
70166;SHT30;57541;47.408;18.822;2023-08-06T03:20:14;18.44;99.99
70166;SHT30;57541;47.408;18.822;2023-08-06T03:20:45;18.47;99.99
70166;SHT30;57541;47.408;18.822;2023-08-06T03:21:17;18.40;99.99
70166;SHT30;57541;47.408;18.822;2023-08-06T03:21:49;18.41;99.99
70166;SHT30;57541;47.408;18.822;2023-08-06T03:22:21;18.33;99.99
70166;SHT30;57541;47.408;18.822;2023-08-06T03:22:53;18.37;99.99
70166;SHT30;57541;47.408;18.822;2023-08-06T03:23:24;18.40;99.99
70166;SHT30;57541;47.408;18.822;2023-08-06T03:23:56;18.36;99.99
70166;SHT30;57541;47.408;18.822;2023-08-06T03:24:27;18.44;99.99
70166;SHT30;57541;47.408;18.822;2023-08-06T03:24:59;18.40;99.99
70166;SHT30;57541;47.408;18.822;2023-08-06T03:25:31;18.41;99.99
70166;SHT30;57541;47.408;18.822;2023-08-06T03:26:03;18.34;99.99